sensor_id;sensor_type;location;lat;lon;timestamp;P1;durP1;ratioP1;P2;durP2;ratioP2
69532;SDS011;56729;52.036;5.332;2022-07-09T00:00:37;10.90;;;6.28;;
69532;SDS011;56729;52.036;5.332;2022-07-09T00:01:39;11.30;;;4.28;;
69532;SDS011;56729;52.036;5.332;2022-07-09T00:02:41;7.53;;;4.68;;
69532;SDS011;56729;52.036;5.332;2022-07-09T00:03:43;8.48;;;5.63;;
69532;SDS011;56729;52.036;5.332;2022-07-09T00:04:45;8.20;;;4.17;;
69532;SDS011;56729;52.036;5.332;2022-07-09T00:05:46;8.23;;;4.22;;
69532;SDS011;56729;52.036;5.332;2022-07-09T00:06:48;7.32;;;4.10;;
69532;SDS011;56729;52.036;5.332;2022-07-09T00:07:50;6.82;;;4.05;;
69532;SDS011;56729;52.036;5.332;2022-07-09T00:08:53;8.45;;;4.85;;
69532;SDS011;56729;52.036;5.332;2022-07-09T00:09:54;10.43;;;5.43;;
69532;SDS011;56729;52.036;5.332;2022-07-09T00:10:56;9.48;;;5.57;;
69532;SDS011;56729;52.036;5.332;2022-07-09T00:11:58;9.00;;;5.45;;
69532;SDS011;56729;52.036;5.332;2022-07-09T00:13:00;8.20;;;4.75;;
69532;SDS011;56729;52.036;5.332;2022-07-09T00:14:02;8.18;;;4.40;;
69532;SDS011;56729;52.036;5.332;2022-07-09T00:15:04;8.70;;;3.93;;
69532;SDS011;56729;52.036;5.332;2022-07-09T00:16:07;9.32;;;4.53;;
69532;SDS011;56729;52.036;5.332;2022-07-09T00:17:09;13.65;;;5.40;;
69532;SDS011;56729;52.036;5.332;2022-07-09T00:18:11;6.38;;;4.35;;
69532;SDS011;56729;52.036;5.332;2022-07-09T00:19:13;6.90;;;4.95;;
69532;SDS011;56729;52.036;5.332;2022-07-09T00:20:15;7.68;;;4.60;;
69532;SDS011;56729;52.036;5.332;2022-07-09T00:21:17;7.85;;;4.30;;
69532;SDS011;56729;52.036;5.332;2022-07-09T00:22:19;6.15;;;4.82;;
69532;SDS011;56729;52.036;5.332;2022-07-09T00:23:21;9.32;;;4.47;;
69532;SDS011;56729;52.036;5.332;2022-07-09T00:24:23;7.80;;;4.70;;
69532;SDS011;56729;52.036;5.332;2022-07-09T00:25:25;7.20;;;4.40;;
69532;SDS011;56729;52.036;5.332;2022-07-09T00:26:27;10.63;;;5.72;;
69532;SDS011;56729;52.036;5.332;2022-07-09T00:27:29;7.50;;;5.68;;
69532;SDS011;56729;52.036;5.332;2022-07-09T00:28:31;8.23;;;4.80;;
69532;SDS011;56729;52.036;5.332;2022-07-09T00:29:33;6.35;;;4.30;;
69532;SDS011;56729;52.036;5.332;2022-07-09T00:30:35;9.23;;;5.88;;
69532;SDS011;56729;52.036;5.332;2022-07-09T00:31:37;8.05;;;5.13;;
69532;SDS011;56729;52.036;5.332;2022-07-09T00:32:39;7.78;;;4.78;;
69532;SDS011;56729;52.036;5.332;2022-07-09T00:33:42;8.23;;;5.57;;
69532;SDS011;56729;52.036;5.332;2022-07-09T00:34:44;8.27;;;5.20;;
69532;SDS011;56729;52.036;5.332;2022-07-09T00:35:46;7.03;;;4.07;;
69532;SDS011;56729;52.036;5.332;2022-07-09T00:36:48;9.48;;;6.00;;
69532;SDS011;56729;52.036;5.332;2022-07-09T00:37:50;8.02;;;4.45;;
69532;SDS011;56729;52.036;5.332;2022-07-09T00:38:52;6.97;;;4.40;;
69532;SDS011;56729;52.036;5.332;2022-07-09T00:39:56;8.30;;;5.55;;
69532;SDS011;56729;52.036;5.332;2022-07-09T00:40:58;9.02;;;4.65;;
69532;SDS011;56729;52.036;5.332;2022-07-09T00:42:01;6.70;;;5.53;;
69532;SDS011;56729;52.036;5.332;2022-07-09T00:43:17;7.15;;;5.50;;
69532;SDS011;56729;52.036;5.332;2022-07-09T00:44:19;6.70;;;4.22;;
69532;SDS011;56729;52.036;5.332;2022-07-09T00:45:21;10.52;;;5.07;;
69532;SDS011;56729;52.036;5.332;2022-07-09T00:46:23;11.33;;;4.33;;
69532;SDS011;56729;52.036;5.332;2022-07-09T00:47:25;6.38;;;4.97;;
69532;SDS011;56729;52.036;5.332;2022-07-09T00:48:27;9.60;;;4.85;;
69532;SDS011;56729;52.036;5.332;2022-07-09T00:49:29;11.40;;;4.32;;
69532;SDS011;56729;52.036;5.332;2022-07-09T00:50:32;9.18;;;4.20;;
69532;SDS011;56729;52.036;5.332;2022-07-09T00:51:34;11.20;;;5.00;;
69532;SDS011;56729;52.036;5.332;2022-07-09T00:52:36;10.00;;;5.57;;
69532;SDS011;56729;52.036;5.332;2022-07-09T00:53:40;9.80;;;5.75;;
69532;SDS011;56729;52.036;5.332;2022-07-09T00:54:42;9.82;;;5.20;;
69532;SDS011;56729;52.036;5.332;2022-07-09T00:55:46;9.00;;;4.70;;
69532;SDS011;56729;52.036;5.332;2022-07-09T00:56:50;9.80;;;4.93;;
69532;SDS011;56729;52.036;5.332;2022-07-09T00:57:55;8.65;;;5.22;;
69532;SDS011;56729;52.036;5.332;2022-07-09T00:58:57;7.85;;;4.05;;
69532;SDS011;56729;52.036;5.332;2022-07-09T01:00:00;7.80;;;4.32;;
69532;SDS011;56729;52.036;5.332;2022-07-09T01:01:02;7.63;;;4.97;;
69532;SDS011;56729;52.036;5.332;2022-07-09T01:02:06;10.32;;;4.78;;
69532;SDS011;56729;52.036;5.332;2022-07-09T01:03:09;7.25;;;4.65;;
69532;SDS011;56729;52.036;5.332;2022-07-09T01:04:12;7.35;;;5.35;;
69532;SDS011;56729;52.036;5.332;2022-07-09T01:05:14;7.30;;;5.18;;
69532;SDS011;56729;52.036;5.332;2022-07-09T01:06:15;7.15;;;5.00;;
69532;SDS011;56729;52.036;5.332;2022-07-09T01:07:17;9.37;;;5.40;;
69532;SDS011;56729;52.036;5.332;2022-07-09T01:08:19;8.00;;;5.60;;
69532;SDS011;56729;52.036;5.332;2022-07-09T01:09:23;8.82;;;4.85;;
69532;SDS011;56729;52.036;5.332;2022-07-09T01:10:29;7.07;;;4.95;;
69532;SDS011;56729;52.036;5.332;2022-07-09T01:11:32;8.02;;;4.45;;
69532;SDS011;56729;52.036;5.332;2022-07-09T01:12:34;7.22;;;4.38;;
69532;SDS011;56729;52.036;5.332;2022-07-09T01:13:36;6.57;;;4.32;;
69532;SDS011;56729;52.036;5.332;2022-07-09T01:14:38;7.55;;;4.50;;
69532;SDS011;56729;52.036;5.332;2022-07-09T01:15:40;6.28;;;5.18;;
69532;SDS011;56729;52.036;5.332;2022-07-09T01:16:42;7.18;;;3.85;;
69532;SDS011;56729;52.036;5.332;2022-07-09T01:17:44;6.50;;;4.73;;
69532;SDS011;56729;52.036;5.332;2022-07-09T01:18:46;7.38;;;5.18;;
69532;SDS011;56729;52.036;5.332;2022-07-09T01:19:48;6.15;;;3.72;;
69532;SDS011;56729;52.036;5.332;2022-07-09T01:20:51;8.15;;;4.30;;
69532;SDS011;56729;52.036;5.332;2022-07-09T01:21:53;5.68;;;3.50;;
69532;SDS011;56729;52.036;5.332;2022-07-09T01:22:56;6.15;;;3.53;;
69532;SDS011;56729;52.036;5.332;2022-07-09T01:23:59;7.88;;;3.83;;
69532;SDS011;56729;52.036;5.332;2022-07-09T01:25:01;6.72;;;4.35;;
69532;SDS011;56729;52.036;5.332;2022-07-09T01:26:06;5.95;;;4.25;;
69532;SDS011;56729;52.036;5.332;2022-07-09T01:27:08;6.20;;;5.00;;
69532;SDS011;56729;52.036;5.332;2022-07-09T01:28:10;6.03;;;4.50;;
69532;SDS011;56729;52.036;5.332;2022-07-09T01:29:12;7.75;;;4.30;;
69532;SDS011;56729;52.036;5.332;2022-07-09T01:30:24;6.05;;;3.95;;
69532;SDS011;56729;52.036;5.332;2022-07-09T01:31:27;7.07;;;4.20;;
69532;SDS011;56729;52.036;5.332;2022-07-09T01:32:29;5.90;;;4.32;;
69532;SDS011;56729;52.036;5.332;2022-07-09T01:33:32;8.35;;;5.07;;
69532;SDS011;56729;52.036;5.332;2022-07-09T01:34:36;7.90;;;4.38;;
69532;SDS011;56729;52.036;5.332;2022-07-09T01:35:38;7.82;;;5.00;;
69532;SDS011;56729;52.036;5.332;2022-07-09T01:36:40;7.60;;;5.63;;
69532;SDS011;56729;52.036;5.332;2022-07-09T01:37:41;8.85;;;5.28;;
69532;SDS011;56729;52.036;5.332;2022-07-09T01:38:44;7.00;;;4.13;;
69532;SDS011;56729;52.036;5.332;2022-07-09T01:39:46;8.68;;;5.93;;
69532;SDS011;56729;52.036;5.332;2022-07-09T01:40:54;7.15;;;4.68;;
69532;SDS011;56729;52.036;5.332;2022-07-09T01:41:56;6.93;;;4.03;;
69532;SDS011;56729;52.036;5.332;2022-07-09T01:42:58;8.38;;;5.30;;
69532;SDS011;56729;52.036;5.332;2022-07-09T01:44:00;5.90;;;3.80;;
69532;SDS011;56729;52.036;5.332;2022-07-09T01:45:02;6.50;;;3.70;;
69532;SDS011;56729;52.036;5.332;2022-07-09T01:46:05;5.38;;;4.05;;
69532;SDS011;56729;52.036;5.332;2022-07-09T01:47:07;7.70;;;4.53;;
69532;SDS011;56729;52.036;5.332;2022-07-09T01:48:09;5.75;;;4.93;;
69532;SDS011;56729;52.036;5.332;2022-07-09T01:49:11;8.33;;;4.33;;
69532;SDS011;56729;52.036;5.332;2022-07-09T01:50:13;7.07;;;5.63;;
69532;SDS011;56729;52.036;5.332;2022-07-09T01:51:15;7.60;;;4.57;;
69532;SDS011;56729;52.036;5.332;2022-07-09T01:52:17;5.95;;;4.13;;
69532;SDS011;56729;52.036;5.332;2022-07-09T01:53:19;8.38;;;5.63;;
69532;SDS011;56729;52.036;5.332;2022-07-09T01:54:21;8.55;;;4.93;;
69532;SDS011;56729;52.036;5.332;2022-07-09T01:55:23;7.82;;;5.05;;
69532;SDS011;56729;52.036;5.332;2022-07-09T01:56:25;9.23;;;7.10;;
69532;SDS011;56729;52.036;5.332;2022-07-09T01:57:26;6.75;;;4.57;;
69532;SDS011;56729;52.036;5.332;2022-07-09T01:58:28;6.38;;;5.03;;
69532;SDS011;56729;52.036;5.332;2022-07-09T01:59:31;7.37;;;4.90;;
69532;SDS011;56729;52.036;5.332;2022-07-09T02:00:33;10.43;;;6.13;;
69532;SDS011;56729;52.036;5.332;2022-07-09T02:01:35;7.18;;;4.40;;
69532;SDS011;56729;52.036;5.332;2022-07-09T02:02:37;10.13;;;4.47;;
69532;SDS011;56729;52.036;5.332;2022-07-09T02:03:39;9.20;;;5.70;;
69532;SDS011;56729;52.036;5.332;2022-07-09T02:04:41;8.77;;;5.50;;
69532;SDS011;56729;52.036;5.332;2022-07-09T02:05:43;9.75;;;5.50;;
69532;SDS011;56729;52.036;5.332;2022-07-09T02:06:45;7.38;;;5.63;;
69532;SDS011;56729;52.036;5.332;2022-07-09T02:07:47;8.23;;;5.78;;
69532;SDS011;56729;52.036;5.332;2022-07-09T02:08:49;8.50;;;6.32;;
69532;SDS011;56729;52.036;5.332;2022-07-09T02:09:51;7.00;;;4.30;;
69532;SDS011;56729;52.036;5.332;2022-07-09T02:10:54;8.75;;;5.70;;
69532;SDS011;56729;52.036;5.332;2022-07-09T02:11:56;9.10;;;6.15;;
69532;SDS011;56729;52.036;5.332;2022-07-09T02:12:58;11.52;;;6.13;;
69532;SDS011;56729;52.036;5.332;2022-07-09T02:13:59;11.15;;;6.15;;
69532;SDS011;56729;52.036;5.332;2022-07-09T02:15:01;12.13;;;5.30;;
69532;SDS011;56729;52.036;5.332;2022-07-09T02:16:04;8.73;;;5.50;;
69532;SDS011;56729;52.036;5.332;2022-07-09T02:17:06;9.82;;;5.20;;
69532;SDS011;56729;52.036;5.332;2022-07-09T02:18:08;9.05;;;5.35;;
69532;SDS011;56729;52.036;5.332;2022-07-09T02:19:10;9.57;;;5.70;;
69532;SDS011;56729;52.036;5.332;2022-07-09T02:20:12;10.57;;;5.17;;
69532;SDS011;56729;52.036;5.332;2022-07-09T02:21:14;9.43;;;6.63;;
69532;SDS011;56729;52.036;5.332;2022-07-09T02:22:16;8.57;;;4.97;;
69532;SDS011;56729;52.036;5.332;2022-07-09T02:23:18;7.93;;;5.85;;
69532;SDS011;56729;52.036;5.332;2022-07-09T02:24:19;8.43;;;5.40;;
69532;SDS011;56729;52.036;5.332;2022-07-09T02:25:21;8.75;;;5.20;;
69532;SDS011;56729;52.036;5.332;2022-07-09T02:26:24;10.68;;;6.03;;
69532;SDS011;56729;52.036;5.332;2022-07-09T02:27:26;11.25;;;5.95;;
69532;SDS011;56729;52.036;5.332;2022-07-09T02:28:28;9.77;;;5.70;;
69532;SDS011;56729;52.036;5.332;2022-07-09T02:29:31;9.50;;;5.38;;
69532;SDS011;56729;52.036;5.332;2022-07-09T02:30:33;8.00;;;4.67;;
69532;SDS011;56729;52.036;5.332;2022-07-09T02:31:35;10.88;;;5.97;;
69532;SDS011;56729;52.036;5.332;2022-07-09T02:32:37;9.05;;;5.55;;
69532;SDS011;56729;52.036;5.332;2022-07-09T02:33:40;11.13;;;6.65;;
69532;SDS011;56729;52.036;5.332;2022-07-09T02:34:42;11.73;;;6.90;;
69532;SDS011;56729;52.036;5.332;2022-07-09T02:35:44;10.32;;;6.55;;
69532;SDS011;56729;52.036;5.332;2022-07-09T02:36:46;9.32;;;6.35;;
69532;SDS011;56729;52.036;5.332;2022-07-09T02:37:48;8.18;;;4.85;;
69532;SDS011;56729;52.036;5.332;2022-07-09T02:38:50;8.70;;;6.00;;
69532;SDS011;56729;52.036;5.332;2022-07-09T02:39:52;8.80;;;5.82;;
69532;SDS011;56729;52.036;5.332;2022-07-09T02:40:54;8.90;;;5.40;;
69532;SDS011;56729;52.036;5.332;2022-07-09T02:41:55;9.98;;;6.28;;
69532;SDS011;56729;52.036;5.332;2022-07-09T02:42:57;11.82;;;6.18;;
69532;SDS011;56729;52.036;5.332;2022-07-09T02:43:59;8.80;;;5.47;;
69532;SDS011;56729;52.036;5.332;2022-07-09T02:45:01;7.97;;;5.90;;
69532;SDS011;56729;52.036;5.332;2022-07-09T02:46:04;9.98;;;5.85;;
69532;SDS011;56729;52.036;5.332;2022-07-09T02:47:07;10.68;;;7.03;;
69532;SDS011;56729;52.036;5.332;2022-07-09T02:48:09;8.32;;;6.07;;
69532;SDS011;56729;52.036;5.332;2022-07-09T02:49:11;10.70;;;5.97;;
69532;SDS011;56729;52.036;5.332;2022-07-09T02:50:13;12.82;;;6.22;;
69532;SDS011;56729;52.036;5.332;2022-07-09T02:51:15;11.63;;;6.50;;
69532;SDS011;56729;52.036;5.332;2022-07-09T02:52:17;9.90;;;5.85;;
69532;SDS011;56729;52.036;5.332;2022-07-09T02:53:19;11.73;;;6.43;;
69532;SDS011;56729;52.036;5.332;2022-07-09T02:54:21;9.07;;;5.93;;
69532;SDS011;56729;52.036;5.332;2022-07-09T02:55:23;8.80;;;7.70;;
69532;SDS011;56729;52.036;5.332;2022-07-09T02:56:25;10.93;;;6.45;;
69532;SDS011;56729;52.036;5.332;2022-07-09T02:57:30;12.77;;;6.95;;
69532;SDS011;56729;52.036;5.332;2022-07-09T02:58:32;8.90;;;6.35;;
69532;SDS011;56729;52.036;5.332;2022-07-09T02:59:34;8.55;;;5.93;;
69532;SDS011;56729;52.036;5.332;2022-07-09T03:00:36;9.75;;;6.78;;
69532;SDS011;56729;52.036;5.332;2022-07-09T03:01:41;8.30;;;5.33;;
69532;SDS011;56729;52.036;5.332;2022-07-09T03:02:43;9.52;;;6.30;;
69532;SDS011;56729;52.036;5.332;2022-07-09T03:03:45;8.40;;;6.72;;
69532;SDS011;56729;52.036;5.332;2022-07-09T03:04:47;10.32;;;6.03;;
69532;SDS011;56729;52.036;5.332;2022-07-09T03:05:49;10.77;;;7.15;;
69532;SDS011;56729;52.036;5.332;2022-07-09T03:06:54;7.32;;;5.32;;
69532;SDS011;56729;52.036;5.332;2022-07-09T03:07:56;10.13;;;6.47;;
69532;SDS011;56729;52.036;5.332;2022-07-09T03:08:58;10.82;;;6.90;;
69532;SDS011;56729;52.036;5.332;2022-07-09T03:10:00;11.05;;;7.45;;
69532;SDS011;56729;52.036;5.332;2022-07-09T03:11:02;13.13;;;7.47;;
69532;SDS011;56729;52.036;5.332;2022-07-09T03:12:05;10.57;;;6.60;;
69532;SDS011;56729;52.036;5.332;2022-07-09T03:13:07;12.57;;;6.65;;
69532;SDS011;56729;52.036;5.332;2022-07-09T03:14:13;10.50;;;6.40;;
69532;SDS011;56729;52.036;5.332;2022-07-09T03:15:15;11.75;;;6.90;;
69532;SDS011;56729;52.036;5.332;2022-07-09T03:16:18;12.50;;;6.95;;
69532;SDS011;56729;52.036;5.332;2022-07-09T03:17:20;12.23;;;8.18;;
69532;SDS011;56729;52.036;5.332;2022-07-09T03:18:22;14.70;;;8.00;;
69532;SDS011;56729;52.036;5.332;2022-07-09T03:19:23;9.80;;;7.18;;
69532;SDS011;56729;52.036;5.332;2022-07-09T03:20:26;10.85;;;6.22;;
69532;SDS011;56729;52.036;5.332;2022-07-09T03:21:27;11.82;;;7.78;;
69532;SDS011;56729;52.036;5.332;2022-07-09T03:22:30;11.93;;;7.10;;
69532;SDS011;56729;52.036;5.332;2022-07-09T03:23:32;9.50;;;7.50;;
69532;SDS011;56729;52.036;5.332;2022-07-09T03:24:34;12.38;;;7.95;;
69532;SDS011;56729;52.036;5.332;2022-07-09T03:25:36;11.50;;;7.65;;
69532;SDS011;56729;52.036;5.332;2022-07-09T03:26:38;18.58;;;8.43;;
69532;SDS011;56729;52.036;5.332;2022-07-09T03:27:40;14.85;;;9.63;;
69532;SDS011;56729;52.036;5.332;2022-07-09T03:28:42;13.13;;;9.25;;
69532;SDS011;56729;52.036;5.332;2022-07-09T03:29:44;12.50;;;8.27;;
69532;SDS011;56729;52.036;5.332;2022-07-09T03:30:45;16.27;;;9.85;;
69532;SDS011;56729;52.036;5.332;2022-07-09T03:31:47;11.45;;;8.25;;
69532;SDS011;56729;52.036;5.332;2022-07-09T03:32:50;11.40;;;7.90;;
69532;SDS011;56729;52.036;5.332;2022-07-09T03:33:52;11.63;;;8.38;;
69532;SDS011;56729;52.036;5.332;2022-07-09T03:34:56;11.68;;;7.90;;
69532;SDS011;56729;52.036;5.332;2022-07-09T03:35:57;13.68;;;8.50;;
69532;SDS011;56729;52.036;5.332;2022-07-09T03:36:59;16.17;;;8.10;;
69532;SDS011;56729;52.036;5.332;2022-07-09T03:38:01;10.38;;;7.13;;
69532;SDS011;56729;52.036;5.332;2022-07-09T03:39:03;14.07;;;8.85;;
69532;SDS011;56729;52.036;5.332;2022-07-09T03:40:05;13.50;;;9.77;;
69532;SDS011;56729;52.036;5.332;2022-07-09T03:41:08;14.38;;;9.32;;
69532;SDS011;56729;52.036;5.332;2022-07-09T03:42:10;19.05;;;11.13;;
69532;SDS011;56729;52.036;5.332;2022-07-09T03:43:13;16.47;;;10.40;;
69532;SDS011;56729;52.036;5.332;2022-07-09T03:44:15;18.70;;;11.55;;
69532;SDS011;56729;52.036;5.332;2022-07-09T03:45:17;15.93;;;10.80;;
69532;SDS011;56729;52.036;5.332;2022-07-09T03:46:19;17.88;;;10.60;;
69532;SDS011;56729;52.036;5.332;2022-07-09T03:47:21;17.65;;;10.88;;
69532;SDS011;56729;52.036;5.332;2022-07-09T03:48:23;14.43;;;9.18;;
69532;SDS011;56729;52.036;5.332;2022-07-09T03:49:25;15.30;;;10.30;;
69532;SDS011;56729;52.036;5.332;2022-07-09T03:50:27;18.08;;;11.40;;
69532;SDS011;56729;52.036;5.332;2022-07-09T03:51:29;19.15;;;11.68;;
69532;SDS011;56729;52.036;5.332;2022-07-09T03:52:31;23.33;;;12.52;;
69532;SDS011;56729;52.036;5.332;2022-07-09T03:53:33;20.70;;;12.10;;
69532;SDS011;56729;52.036;5.332;2022-07-09T03:54:35;15.48;;;9.63;;
69532;SDS011;56729;52.036;5.332;2022-07-09T03:55:37;16.75;;;10.27;;
69532;SDS011;56729;52.036;5.332;2022-07-09T03:56:38;19.98;;;12.05;;
69532;SDS011;56729;52.036;5.332;2022-07-09T03:57:40;18.13;;;13.65;;
69532;SDS011;56729;52.036;5.332;2022-07-09T03:58:44;18.73;;;10.98;;
69532;SDS011;56729;52.036;5.332;2022-07-09T03:59:45;16.65;;;11.10;;
69532;SDS011;56729;52.036;5.332;2022-07-09T04:00:47;16.25;;;12.32;;
69532;SDS011;56729;52.036;5.332;2022-07-09T04:01:49;16.15;;;11.27;;
69532;SDS011;56729;52.036;5.332;2022-07-09T04:02:51;16.38;;;10.82;;
69532;SDS011;56729;52.036;5.332;2022-07-09T04:03:53;16.33;;;10.30;;
69532;SDS011;56729;52.036;5.332;2022-07-09T04:04:55;17.33;;;11.23;;
69532;SDS011;56729;52.036;5.332;2022-07-09T04:05:57;17.02;;;10.73;;
69532;SDS011;56729;52.036;5.332;2022-07-09T04:06:59;15.85;;;11.98;;
69532;SDS011;56729;52.036;5.332;2022-07-09T04:08:01;18.35;;;12.13;;
69532;SDS011;56729;52.036;5.332;2022-07-09T04:09:03;16.00;;;10.50;;
69532;SDS011;56729;52.036;5.332;2022-07-09T04:10:05;14.38;;;9.05;;
69532;SDS011;56729;52.036;5.332;2022-07-09T04:11:07;12.63;;;9.60;;
69532;SDS011;56729;52.036;5.332;2022-07-09T04:12:10;18.00;;;9.95;;
69532;SDS011;56729;52.036;5.332;2022-07-09T04:13:11;13.45;;;8.90;;
69532;SDS011;56729;52.036;5.332;2022-07-09T04:14:15;11.47;;;8.87;;
69532;SDS011;56729;52.036;5.332;2022-07-09T04:15:17;13.77;;;9.30;;
69532;SDS011;56729;52.036;5.332;2022-07-09T04:16:19;20.42;;;12.10;;
69532;SDS011;56729;52.036;5.332;2022-07-09T04:17:21;19.85;;;12.80;;
69532;SDS011;56729;52.036;5.332;2022-07-09T04:18:23;20.45;;;12.77;;
69532;SDS011;56729;52.036;5.332;2022-07-09T04:19:25;20.48;;;12.85;;
69532;SDS011;56729;52.036;5.332;2022-07-09T04:20:27;18.90;;;11.73;;
69532;SDS011;56729;52.036;5.332;2022-07-09T04:21:29;19.92;;;11.88;;
69532;SDS011;56729;52.036;5.332;2022-07-09T04:22:31;17.92;;;12.23;;
69532;SDS011;56729;52.036;5.332;2022-07-09T04:23:32;16.73;;;11.82;;
69532;SDS011;56729;52.036;5.332;2022-07-09T04:24:34;21.70;;;12.93;;
69532;SDS011;56729;52.036;5.332;2022-07-09T04:25:36;19.15;;;12.90;;
69532;SDS011;56729;52.036;5.332;2022-07-09T04:26:38;17.77;;;12.07;;
69532;SDS011;56729;52.036;5.332;2022-07-09T04:27:40;18.45;;;12.02;;
69532;SDS011;56729;52.036;5.332;2022-07-09T04:28:42;17.40;;;10.93;;
69532;SDS011;56729;52.036;5.332;2022-07-09T04:29:44;16.90;;;10.82;;
69532;SDS011;56729;52.036;5.332;2022-07-09T04:30:46;14.57;;;10.02;;
69532;SDS011;56729;52.036;5.332;2022-07-09T04:31:48;20.90;;;11.98;;
69532;SDS011;56729;52.036;5.332;2022-07-09T04:32:50;18.95;;;12.63;;
69532;SDS011;56729;52.036;5.332;2022-07-09T04:33:52;18.60;;;12.18;;
69532;SDS011;56729;52.036;5.332;2022-07-09T04:34:53;21.13;;;11.50;;
69532;SDS011;56729;52.036;5.332;2022-07-09T04:35:55;18.80;;;11.90;;
69532;SDS011;56729;52.036;5.332;2022-07-09T04:36:57;16.98;;;11.73;;
69532;SDS011;56729;52.036;5.332;2022-07-09T04:37:59;18.98;;;12.30;;
69532;SDS011;56729;52.036;5.332;2022-07-09T04:39:01;20.23;;;13.25;;
69532;SDS011;56729;52.036;5.332;2022-07-09T04:40:03;19.48;;;12.68;;
69532;SDS011;56729;52.036;5.332;2022-07-09T04:41:06;16.45;;;12.13;;
69532;SDS011;56729;52.036;5.332;2022-07-09T04:42:08;19.08;;;11.20;;
69532;SDS011;56729;52.036;5.332;2022-07-09T04:43:13;16.13;;;10.80;;
69532;SDS011;56729;52.036;5.332;2022-07-09T04:44:15;15.93;;;10.88;;
69532;SDS011;56729;52.036;5.332;2022-07-09T04:45:17;19.97;;;12.47;;
69532;SDS011;56729;52.036;5.332;2022-07-09T04:46:19;21.45;;;13.88;;
69532;SDS011;56729;52.036;5.332;2022-07-09T04:47:23;20.27;;;12.95;;
69532;SDS011;56729;52.036;5.332;2022-07-09T04:48:25;19.48;;;12.55;;
69532;SDS011;56729;52.036;5.332;2022-07-09T04:49:27;16.17;;;11.23;;
69532;SDS011;56729;52.036;5.332;2022-07-09T04:50:29;17.05;;;11.23;;
69532;SDS011;56729;52.036;5.332;2022-07-09T04:51:31;17.52;;;11.70;;
69532;SDS011;56729;52.036;5.332;2022-07-09T04:52:33;18.35;;;12.90;;
69532;SDS011;56729;52.036;5.332;2022-07-09T04:53:35;21.40;;;13.27;;
69532;SDS011;56729;52.036;5.332;2022-07-09T04:54:37;22.92;;;13.95;;
69532;SDS011;56729;52.036;5.332;2022-07-09T04:55:39;28.97;;;16.80;;
69532;SDS011;56729;52.036;5.332;2022-07-09T04:56:41;22.55;;;13.90;;
69532;SDS011;56729;52.036;5.332;2022-07-09T04:57:43;27.13;;;17.40;;
69532;SDS011;56729;52.036;5.332;2022-07-09T04:58:46;29.58;;;17.10;;
69532;SDS011;56729;52.036;5.332;2022-07-09T04:59:57;24.40;;;16.83;;
69532;SDS011;56729;52.036;5.332;2022-07-09T05:00:59;31.77;;;19.27;;
69532;SDS011;56729;52.036;5.332;2022-07-09T05:02:01;37.30;;;20.08;;
69532;SDS011;56729;52.036;5.332;2022-07-09T05:03:03;27.92;;;17.00;;
69532;SDS011;56729;52.036;5.332;2022-07-09T05:04:05;32.33;;;17.20;;
69532;SDS011;56729;52.036;5.332;2022-07-09T05:05:08;27.17;;;17.23;;
69532;SDS011;56729;52.036;5.332;2022-07-09T05:06:10;31.47;;;16.10;;
69532;SDS011;56729;52.036;5.332;2022-07-09T05:07:12;27.83;;;18.35;;
69532;SDS011;56729;52.036;5.332;2022-07-09T05:08:14;26.65;;;16.48;;
69532;SDS011;56729;52.036;5.332;2022-07-09T05:09:16;25.98;;;16.63;;
69532;SDS011;56729;52.036;5.332;2022-07-09T05:10:18;31.35;;;18.60;;
69532;SDS011;56729;52.036;5.332;2022-07-09T05:11:21;27.55;;;18.60;;
69532;SDS011;56729;52.036;5.332;2022-07-09T05:12:22;26.63;;;15.95;;
69532;SDS011;56729;52.036;5.332;2022-07-09T05:13:25;23.42;;;15.77;;
69532;SDS011;56729;52.036;5.332;2022-07-09T05:14:27;34.15;;;18.33;;
69532;SDS011;56729;52.036;5.332;2022-07-09T05:15:29;38.42;;;23.02;;
69532;SDS011;56729;52.036;5.332;2022-07-09T05:16:33;45.93;;;25.03;;
69532;SDS011;56729;52.036;5.332;2022-07-09T05:17:38;39.75;;;23.13;;
69532;SDS011;56729;52.036;5.332;2022-07-09T05:18:41;49.97;;;26.23;;
69532;SDS011;56729;52.036;5.332;2022-07-09T05:19:43;40.45;;;24.33;;
69532;SDS011;56729;52.036;5.332;2022-07-09T05:20:45;45.05;;;25.40;;
69532;SDS011;56729;52.036;5.332;2022-07-09T05:21:47;35.08;;;21.55;;
69532;SDS011;56729;52.036;5.332;2022-07-09T05:22:49;36.05;;;21.13;;
69532;SDS011;56729;52.036;5.332;2022-07-09T05:23:51;37.00;;;22.92;;
69532;SDS011;56729;52.036;5.332;2022-07-09T05:24:53;35.15;;;21.50;;
69532;SDS011;56729;52.036;5.332;2022-07-09T05:25:55;40.67;;;23.30;;
69532;SDS011;56729;52.036;5.332;2022-07-09T05:26:57;39.73;;;23.87;;
69532;SDS011;56729;52.036;5.332;2022-07-09T05:27:59;37.78;;;22.95;;
69532;SDS011;56729;52.036;5.332;2022-07-09T05:29:01;42.45;;;23.20;;
69532;SDS011;56729;52.036;5.332;2022-07-09T05:30:04;42.00;;;26.35;;
69532;SDS011;56729;52.036;5.332;2022-07-09T05:31:07;49.70;;;26.83;;
69532;SDS011;56729;52.036;5.332;2022-07-09T05:32:29;37.65;;;23.05;;
69532;SDS011;56729;52.036;5.332;2022-07-09T05:33:31;36.40;;;22.73;;
69532;SDS011;56729;52.036;5.332;2022-07-09T05:34:33;35.28;;;21.23;;
69532;SDS011;56729;52.036;5.332;2022-07-09T05:35:35;35.03;;;21.05;;
69532;SDS011;56729;52.036;5.332;2022-07-09T05:36:37;32.17;;;21.77;;
69532;SDS011;56729;52.036;5.332;2022-07-09T05:37:40;32.43;;;21.13;;
69532;SDS011;56729;52.036;5.332;2022-07-09T05:38:43;32.83;;;20.80;;
69532;SDS011;56729;52.036;5.332;2022-07-09T05:39:45;34.25;;;22.27;;
69532;SDS011;56729;52.036;5.332;2022-07-09T05:40:47;32.40;;;20.35;;
69532;SDS011;56729;52.036;5.332;2022-07-09T05:41:49;31.80;;;20.38;;
69532;SDS011;56729;52.036;5.332;2022-07-09T05:42:52;31.67;;;19.65;;
69532;SDS011;56729;52.036;5.332;2022-07-09T05:43:54;35.45;;;20.88;;
69532;SDS011;56729;52.036;5.332;2022-07-09T05:44:57;45.80;;;27.33;;
69532;SDS011;56729;52.036;5.332;2022-07-09T05:45:59;36.60;;;20.55;;
69532;SDS011;56729;52.036;5.332;2022-07-09T05:47:02;30.13;;;19.13;;
69532;SDS011;56729;52.036;5.332;2022-07-09T05:48:05;38.47;;;22.13;;
69532;SDS011;56729;52.036;5.332;2022-07-09T05:49:07;37.03;;;22.55;;
69532;SDS011;56729;52.036;5.332;2022-07-09T05:50:09;42.30;;;25.52;;
69532;SDS011;56729;52.036;5.332;2022-07-09T05:51:11;48.83;;;26.20;;
69532;SDS011;56729;52.036;5.332;2022-07-09T05:52:13;44.75;;;25.20;;
69532;SDS011;56729;52.036;5.332;2022-07-09T05:53:15;45.05;;;25.95;;
69532;SDS011;56729;52.036;5.332;2022-07-09T05:54:17;52.47;;;26.67;;
69532;SDS011;56729;52.036;5.332;2022-07-09T05:55:19;48.13;;;27.48;;
69532;SDS011;56729;52.036;5.332;2022-07-09T05:56:21;43.55;;;25.70;;
69532;SDS011;56729;52.036;5.332;2022-07-09T05:57:23;44.70;;;27.63;;
69532;SDS011;56729;52.036;5.332;2022-07-09T05:58:26;42.67;;;26.03;;
69532;SDS011;56729;52.036;5.332;2022-07-09T05:59:28;48.65;;;28.20;;
69532;SDS011;56729;52.036;5.332;2022-07-09T06:00:30;51.22;;;30.10;;
69532;SDS011;56729;52.036;5.332;2022-07-09T06:01:32;48.88;;;28.45;;
69532;SDS011;56729;52.036;5.332;2022-07-09T06:02:34;46.72;;;28.30;;
69532;SDS011;56729;52.036;5.332;2022-07-09T06:03:36;47.22;;;29.25;;
69532;SDS011;56729;52.036;5.332;2022-07-09T06:04:38;48.63;;;30.17;;
69532;SDS011;56729;52.036;5.332;2022-07-09T06:05:40;46.03;;;28.40;;
69532;SDS011;56729;52.036;5.332;2022-07-09T06:06:42;53.20;;;29.25;;
69532;SDS011;56729;52.036;5.332;2022-07-09T06:07:43;50.53;;;29.05;;
69532;SDS011;56729;52.036;5.332;2022-07-09T06:08:46;46.17;;;28.67;;
69532;SDS011;56729;52.036;5.332;2022-07-09T06:09:48;52.08;;;30.50;;
69532;SDS011;56729;52.036;5.332;2022-07-09T06:10:50;50.13;;;28.63;;